createdAt,value
2018-01-26T00:02:21.920Z,68.30
2018-01-26T00:04:49.433Z,68.30
2018-01-26T00:07:16.967Z,68.60
2018-01-26T00:09:44.474Z,68.80
2018-01-26T00:12:12.019Z,68.90
2018-01-26T00:14:39.534Z,69.20
2018-01-26T00:17:07.085Z,69.60
2018-01-26T00:19:35.419Z,69.00
2018-01-26T00:22:02.918Z,69.10
2018-01-26T00:24:31.191Z,69.10
2018-01-26T00:26:59.493Z,69.00
2018-01-26T00:29:26.997Z,69.00
2018-01-26T00:31:54.528Z,68.90
2018-01-26T00:34:22.038Z,68.80
2018-01-26T00:36:50.368Z,68.80
2018-01-26T00:39:17.863Z,68.80
2018-01-26T00:41:46.134Z,69.00
2018-01-26T00:44:14.452Z,69.40
2018-01-26T00:46:41.968Z,68.50
2018-01-26T00:49:10.236Z,68.30
2018-01-26T00:51:37.783Z,68.20
2018-01-26T00:54:05.323Z,68.00
2018-01-26T00:56:32.823Z,68.00
2018-01-26T00:59:01.121Z,68.00
2018-01-26T01:01:28.609Z,68.00
2018-01-26T01:03:56.125Z,68.00
2018-01-26T01:06:24.421Z,68.00
2018-01-26T01:08:51.930Z,68.00
2018-01-26T01:11:19.432Z,68.00
2018-01-26T01:13:46.969Z,68.00
2018-01-26T01:16:15.242Z,68.00
2018-01-26T01:18:42.816Z,68.00
2018-01-26T01:21:10.326Z,68.20
2018-01-26T01:23:37.865Z,68.50
2018-01-26T01:26:05.392Z,68.90
2018-01-26T01:28:32.891Z,69.30
2018-01-26T01:31:00.417Z,69.60
2018-01-26T01:33:27.932Z,69.80
2018-01-26T01:35:56.218Z,70.00
2018-01-26T01:38:24.481Z,71.50
2018-01-26T01:40:51.981Z,71.50
2018-01-26T01:43:19.548Z,71.70
2018-01-26T01:45:47.053Z,71.70
2018-01-26T01:48:14.539Z,71.70
2018-01-26T01:50:42.052Z,71.80
2018-01-26T01:53:09.597Z,71.70
2018-01-26T01:55:37.103Z,71.70
2018-01-26T01:58:05.376Z,71.50
2018-01-26T02:00:33.681Z,71.40
2018-01-26T02:03:01.171Z,71.30
2018-01-26T02:05:28.671Z,71.20
2018-01-26T02:07:56.974Z,70.80
2018-01-26T02:10:24.483Z,70.80
2018-01-26T02:12:52.028Z,70.80
2018-01-26T02:15:19.527Z,70.70
2018-01-26T02:17:47.053Z,70.60
2018-01-26T02:20:14.579Z,70.40
2018-01-26T02:22:42.076Z,70.40
2018-01-26T02:25:10.367Z,69.60
2018-01-26T02:27:37.911Z,69.30
2018-01-26T02:30:05.424Z,69.20
2018-01-26T02:32:32.933Z,69.20
2018-01-26T02:35:01.229Z,69.10
2018-01-26T02:37:28.755Z,69.10
2018-01-26T02:39:57.021Z,69.00
2018-01-26T02:42:24.602Z,69.00
2018-01-26T02:44:52.866Z,68.80
2018-01-26T02:47:20.420Z,68.80
2018-01-26T02:49:49.470Z,69.00
2018-01-26T02:52:17.016Z,68.90
2018-01-26T02:54:44.516Z,69.00
2018-01-26T02:57:12.017Z,70.00
2018-01-26T02:59:39.552Z,69.40
2018-01-26T03:02:07.830Z,69.80
2018-01-26T03:04:36.107Z,69.90
2018-01-26T03:07:04.435Z,69.80
2018-01-26T03:09:31.952Z,69.80
2018-01-26T03:11:59.500Z,69.80
2018-01-26T03:14:27.770Z,69.60
2018-01-26T03:16:56.039Z,70.50
2018-01-26T03:19:23.588Z,69.70
2018-01-26T03:21:51.097Z,69.60
2018-01-26T03:24:18.660Z,69.40
2018-01-26T03:26:46.163Z,69.30
2018-01-26T03:29:13.678Z,69.10
2018-01-26T03:31:41.203Z,69.20
2018-01-26T03:34:09.458Z,69.20
2018-01-26T03:36:36.994Z,69.20
2018-01-26T03:39:04.512Z,69.10
2018-01-26T03:41:32.040Z,69.20
2018-01-26T03:44:00.351Z,69.50
2018-01-26T03:46:27.865Z,69.50
2018-01-26T03:48:55.401Z,70.10
2018-01-26T03:51:22.903Z,70.70
2018-01-26T03:53:50.415Z,70.90
2018-01-26T03:56:17.944Z,71.20
2018-01-26T03:58:45.442Z,71.70
2018-01-26T04:01:12.955Z,72.10
2018-01-26T04:03:40.452Z,72.10
2018-01-26T04:06:07.988Z,72.40
2018-01-26T04:08:35.500Z,72.90
2018-01-26T04:11:03.764Z,73.80
2018-01-26T04:13:32.056Z,73.80
2018-01-26T04:16:00.312Z,73.80
2018-01-26T04:18:28.607Z,74.10
2018-01-26T04:20:56.916Z,74.20
2018-01-26T04:23:24.429Z,74.20
2018-01-26T04:25:52.704Z,75.80
2018-01-26T04:28:20.973Z,77.00
2018-01-26T04:30:49.249Z,77.00
2018-01-26T04:33:17.527Z,77.10
2018-01-26T04:35:45.823Z,77.10
2018-01-26T04:38:14.092Z,77.40
2018-01-26T04:40:42.368Z,77.60
2018-01-26T04:43:09.917Z,77.60
2018-01-26T04:45:38.185Z,78.30
2018-01-26T04:48:05.728Z,78.30
2018-01-26T04:50:33.236Z,78.50
2018-01-26T04:53:00.734Z,78.90
2018-01-26T04:55:28.272Z,78.00
2018-01-26T04:57:55.762Z,78.40
2018-01-26T05:00:23.287Z,78.50
2018-01-26T05:02:50.793Z,78.60
2018-01-26T05:05:19.050Z,79.10
2018-01-26T05:07:46.569Z,79.10
2018-01-26T05:10:14.079Z,79.30
2018-01-26T05:12:42.394Z,79.80
2018-01-26T05:15:09.908Z,79.70
2018-01-26T05:17:38.197Z,80.90
2018-01-26T05:20:06.483Z,80.70
2018-01-26T05:22:34.015Z,80.50
2018-01-26T05:25:02.282Z,81.80
2018-01-26T05:27:29.811Z,82.10
2018-01-26T05:29:57.320Z,82.10
2018-01-26T05:32:25.593Z,80.90
2018-01-26T05:34:53.895Z,81.00
2018-01-26T05:37:22.207Z,81.00
2018-01-26T05:39:49.746Z,81.30
2018-01-26T05:42:17.262Z,82.50
2018-01-26T05:44:45.555Z,82.80
2018-01-26T05:47:13.075Z,82.70
2018-01-26T05:49:40.577Z,82.70
2018-01-26T05:52:08.076Z,82.90
2018-01-26T05:54:35.603Z,82.70
2018-01-26T05:57:03.111Z,81.80
2018-01-26T05:59:31.440Z,82.00
2018-01-26T06:01:58.960Z,82.00
2018-01-26T06:04:27.308Z,83.20
2018-01-26T06:06:56.468Z,83.30
2018-01-26T06:09:23.978Z,83.30
2018-01-26T06:11:52.270Z,83.40
2018-01-26T06:14:19.791Z,83.40
2018-01-26T06:16:47.355Z,83.50
2018-01-26T06:19:14.853Z,83.60
2018-01-26T06:21:42.337Z,83.60
2018-01-26T06:24:09.915Z,83.70
2018-01-26T06:26:37.391Z,83.60
2018-01-26T06:29:04.896Z,83.70
2018-01-26T06:31:32.430Z,82.60
2018-01-26T06:34:00.687Z,83.60
2018-01-26T06:36:28.196Z,83.60
2018-01-26T06:38:55.703Z,83.40
2018-01-26T06:41:23.222Z,82.10
2018-01-26T06:43:50.743Z,82.10
2018-01-26T06:46:18.233Z,82.60
2018-01-26T06:48:45.727Z,82.30
2018-01-26T06:51:13.236Z,82.10
2018-01-26T06:53:40.736Z,82.10
2018-01-26T06:56:08.262Z,82.10
2018-01-26T06:58:36.540Z,83.20
2018-01-26T07:01:04.039Z,83.40
2018-01-26T07:03:32.401Z,83.60
2018-01-26T07:05:59.868Z,83.60
2018-01-26T07:08:27.383Z,83.70
2018-01-26T07:10:54.904Z,83.70
2018-01-26T07:13:23.166Z,84.10
2018-01-26T07:15:51.463Z,84.20
2018-01-26T07:18:18.973Z,84.10
2018-01-26T07:20:46.459Z,84.20
2018-01-26T07:23:14.755Z,84.20
2018-01-26T07:25:42.288Z,84.20
2018-01-26T07:28:09.826Z,84.20
2018-01-26T07:30:40.121Z,84.50
2018-01-26T07:33:07.660Z,84.40
2018-01-26T07:35:35.187Z,84.70
2018-01-26T07:38:03.452Z,84.70
2018-01-26T07:40:30.980Z,84.70
2018-01-26T07:42:58.483Z,85.60
2018-01-26T07:45:26.742Z,85.10
2018-01-26T07:47:55.041Z,85.40
2018-01-26T07:50:23.319Z,85.20
2018-01-26T07:52:50.860Z,85.10
2018-01-26T07:55:19.111Z,85.00
2018-01-26T07:57:46.665Z,84.90
2018-01-26T08:00:14.216Z,84.70
2018-01-26T08:02:41.709Z,84.60
2018-01-26T08:05:10.020Z,83.40
2018-01-26T08:07:37.527Z,83.40
2018-01-26T08:10:05.023Z,83.20
2018-01-26T08:12:32.546Z,82.90
2018-01-26T08:15:00.056Z,82.80
2018-01-26T08:17:27.617Z,82.80
2018-01-26T08:19:55.119Z,82.60
2018-01-26T08:22:22.631Z,82.70
2018-01-26T08:24:50.172Z,83.00
2018-01-26T08:27:17.673Z,82.80
2018-01-26T08:29:45.195Z,83.00
2018-01-26T08:32:12.702Z,83.00
2018-01-26T08:34:40.205Z,83.10
2018-01-26T08:37:07.734Z,83.30
2018-01-26T08:39:36.011Z,83.30
2018-01-26T08:42:03.535Z,83.20
2018-01-26T08:44:31.040Z,83.40
2018-01-26T08:46:58.631Z,83.30
2018-01-26T08:49:26.119Z,83.50
2018-01-26T08:51:53.629Z,83.50
2018-01-26T08:54:21.147Z,83.60
2018-01-26T08:56:49.412Z,83.50
2018-01-26T08:59:16.936Z,83.30
2018-01-26T09:01:44.433Z,83.10
2018-01-26T09:04:11.964Z,83.00
2018-01-26T09:06:39.464Z,82.80
2018-01-26T09:09:07.779Z,82.50
2018-01-26T09:11:35.312Z,82.50
2018-01-26T09:14:02.809Z,82.20
2018-01-26T09:16:30.356Z,81.80
2018-01-26T09:18:57.856Z,81.60
2018-01-26T09:21:25.353Z,81.50
2018-01-26T09:23:52.876Z,81.90
2018-01-26T09:26:21.126Z,81.50
2018-01-26T09:28:49.432Z,80.90
2018-01-26T09:31:17.715Z,80.80
2018-01-26T09:33:46.039Z,80.60
2018-01-26T09:36:13.586Z,80.60
2018-01-26T09:38:41.070Z,80.50
2018-01-26T09:41:08.607Z,80.60
2018-01-26T09:43:36.138Z,80.60
2018-01-26T09:46:03.670Z,80.70
2018-01-26T09:48:31.968Z,80.80
2018-01-26T09:50:59.463Z,80.70
2018-01-26T09:53:26.964Z,81.60
2018-01-26T09:55:55.260Z,80.90
2018-01-26T09:58:22.802Z,80.90
2018-01-26T10:00:51.095Z,80.50
2018-01-26T10:03:18.624Z,80.50
2018-01-26T10:05:46.908Z,80.70
2018-01-26T10:08:15.214Z,80.70
2018-01-26T10:10:42.737Z,80.70
2018-01-26T10:13:10.998Z,80.20
2018-01-26T10:15:38.515Z,80.10
2018-01-26T10:18:06.062Z,79.80
2018-01-26T10:20:33.593Z,80.10
2018-01-26T10:23:01.872Z,80.00
2018-01-26T10:25:30.137Z,79.80
2018-01-26T10:27:57.700Z,79.80
2018-01-26T10:30:25.978Z,79.90
2018-01-26T10:32:54.272Z,79.80
2018-01-26T10:35:21.759Z,80.60
2018-01-26T10:37:49.301Z,79.50
2018-01-26T10:40:16.815Z,79.60
2018-01-26T10:42:45.144Z,80.00
2018-01-26T10:45:12.653Z,80.00
2018-01-26T10:47:40.924Z,79.80
2018-01-26T10:50:09.224Z,79.90
2018-01-26T10:52:36.720Z,79.80
2018-01-26T10:55:04.244Z,79.90
2018-01-26T10:57:31.740Z,79.90
2018-01-26T10:59:59.268Z,79.80
2018-01-26T11:02:26.759Z,79.80
2018-01-26T11:04:54.292Z,79.80
2018-01-26T11:07:21.802Z,79.80
2018-01-26T11:09:50.097Z,79.60
2018-01-26T11:12:17.640Z,79.60
2018-01-26T11:14:45.927Z,79.50
2018-01-26T11:17:14.233Z,79.30
2018-01-26T11:19:41.754Z,79.30
2018-01-26T11:22:10.020Z,79.10
2018-01-26T11:24:38.326Z,78.70
2018-01-26T11:27:05.839Z,78.70
2018-01-26T11:29:33.375Z,78.40
2018-01-26T11:32:00.869Z,78.50
2018-01-26T11:34:29.153Z,78.20
2018-01-26T11:36:57.428Z,78.00
2018-01-26T11:39:25.733Z,78.00
2018-01-26T11:41:53.235Z,78.00
2018-01-26T11:44:20.745Z,77.90
2018-01-26T11:46:48.266Z,78.00
2018-01-26T11:49:16.528Z,77.30
2018-01-26T11:51:44.071Z,77.30
2018-01-26T11:54:11.559Z,77.10
2018-01-26T11:56:39.818Z,76.70
2018-01-26T11:59:07.332Z,76.60
2018-01-26T12:01:34.849Z,76.60
2018-01-26T12:04:03.136Z,76.20
2018-01-26T12:06:30.645Z,76.20
2018-01-26T12:08:58.259Z,76.20
2018-01-26T12:11:25.804Z,75.90
2018-01-26T12:13:54.088Z,75.80
2018-01-26T12:16:21.616Z,75.80
2018-01-26T12:18:49.883Z,75.70
2018-01-26T12:21:17.408Z,75.60
2018-01-26T12:23:44.927Z,75.70
2018-01-26T12:26:13.201Z,75.60
2018-01-26T12:28:41.495Z,75.70
2018-01-26T12:31:09.040Z,75.60
2018-01-26T12:33:37.344Z,75.50
2018-01-26T12:36:04.846Z,75.50
2018-01-26T12:38:32.396Z,75.30
2018-01-26T12:41:01.511Z,75.20
2018-01-26T12:43:28.975Z,75.10
2018-01-26T12:45:58.054Z,75.40
2018-01-26T12:48:25.558Z,75.40
2018-01-26T12:50:53.082Z,75.40
2018-01-26T12:53:21.395Z,75.20
2018-01-26T12:55:48.920Z,75.10
2018-01-26T12:58:17.227Z,75.20
2018-01-26T13:00:44.734Z,75.00
2018-01-26T13:03:12.254Z,75.20
2018-01-26T13:05:39.783Z,74.70
2018-01-26T13:08:07.297Z,74.40
2018-01-26T13:10:36.375Z,73.30
2018-01-26T13:13:03.889Z,73.30
2018-01-26T13:15:31.434Z,73.20
2018-01-26T13:17:59.728Z,73.20
2018-01-26T13:20:27.259Z,73.20
2018-01-26T13:22:55.576Z,73.40
2018-01-26T13:25:23.092Z,73.00
2018-01-26T13:27:50.621Z,72.70
2018-01-26T13:30:18.124Z,72.00
2018-01-26T13:32:46.441Z,72.00
2018-01-26T13:35:13.951Z,71.90
2018-01-26T13:37:42.220Z,71.90
2018-01-26T13:40:09.764Z,71.80
2018-01-26T13:42:37.293Z,71.70
2018-01-26T13:45:04.808Z,71.40
2018-01-26T13:47:33.121Z,71.60
2018-01-26T13:50:00.678Z,71.50
2018-01-26T13:52:28.183Z,71.60
2018-01-26T13:54:55.729Z,71.90
2018-01-26T13:57:23.232Z,72.50
2018-01-26T13:59:50.731Z,72.10
2018-01-26T14:02:18.265Z,72.00
2018-01-26T14:04:45.771Z,71.90
2018-01-26T14:07:14.055Z,71.80
2018-01-26T14:09:42.354Z,71.80
2018-01-26T14:12:09.896Z,71.70
2018-01-26T14:14:38.163Z,71.70
2018-01-26T14:17:06.503Z,71.60
2018-01-26T14:19:34.048Z,71.60
2018-01-26T14:22:01.556Z,71.70
2018-01-26T14:24:29.836Z,72.00
2018-01-26T14:26:58.112Z,72.20
2018-01-26T14:29:26.420Z,72.60
2018-01-26T14:31:53.966Z,72.50
2018-01-26T14:34:21.463Z,72.90
2018-01-26T14:36:49.000Z,73.30
2018-01-26T14:39:16.517Z,73.80
2018-01-26T14:41:44.808Z,74.30
2018-01-26T14:44:12.299Z,74.10
2018-01-26T14:46:39.863Z,74.20
2018-01-26T14:49:07.418Z,74.30
2018-01-26T14:51:34.924Z,74.70
2018-01-26T14:54:03.228Z,75.70
2018-01-26T14:56:30.751Z,75.60
2018-01-26T14:58:59.068Z,76.80
2018-01-26T15:01:26.565Z,76.80
2018-01-26T15:03:54.090Z,77.20
2018-01-26T15:06:22.213Z,77.10
2018-01-26T15:08:50.484Z,76.50
2018-01-26T15:11:18.021Z,76.50
2018-01-26T15:13:45.643Z,76.40
2018-01-26T15:16:13.149Z,76.60
2018-01-26T15:18:40.700Z,76.80
2018-01-26T15:21:08.224Z,77.00
2018-01-26T15:23:35.751Z,77.20
2018-01-26T15:26:03.252Z,77.40
2018-01-26T15:28:30.792Z,77.80
2018-01-26T15:30:58.325Z,77.90
2018-01-26T15:33:25.843Z,77.90
2018-01-26T15:35:53.395Z,77.30
2018-01-26T15:38:20.908Z,77.40
2018-01-26T15:40:48.433Z,77.60
2018-01-26T15:43:16.746Z,78.30
2018-01-26T15:45:44.298Z,77.50
2018-01-26T15:48:11.813Z,77.70
2018-01-26T15:50:39.347Z,77.70
2018-01-26T15:53:06.904Z,77.90
2018-01-26T15:55:34.422Z,78.00
2018-01-26T15:58:02.744Z,78.80
2018-01-26T16:00:30.260Z,78.00
2018-01-26T16:02:57.983Z,78.20
2018-01-26T16:05:25.525Z,78.60
2018-01-26T16:07:53.021Z,78.80
2018-01-26T16:10:21.385Z,79.40
2018-01-26T16:12:49.662Z,79.80
2018-01-26T16:15:17.179Z,79.20
2018-01-26T16:17:44.721Z,79.60
2018-01-26T16:20:12.248Z,79.90
2018-01-26T16:22:40.563Z,80.20
2018-01-26T16:25:08.094Z,80.20
2018-01-26T16:27:35.762Z,80.40
2018-01-26T16:30:03.278Z,80.40
2018-01-26T16:32:30.820Z,80.80
2018-01-26T16:34:58.332Z,81.10
2018-01-26T16:37:27.844Z,81.00
2018-01-26T16:39:55.384Z,81.10
2018-01-26T16:42:23.643Z,81.50
2018-01-26T16:44:51.168Z,81.50
2018-01-26T16:47:18.699Z,82.50
2018-01-26T16:49:46.284Z,82.70
2018-01-26T16:52:13.800Z,82.80
2018-01-26T16:54:41.311Z,83.00
2018-01-26T16:57:08.849Z,83.60
2018-01-26T16:59:36.363Z,83.60
2018-01-26T17:02:04.715Z,83.80
2018-01-26T17:04:32.240Z,83.80
2018-01-26T17:06:59.777Z,83.80
2018-01-26T17:09:27.288Z,84.20
2018-01-26T17:11:54.786Z,84.70
2018-01-26T17:14:22.322Z,84.70
2018-01-26T17:16:50.612Z,84.60
2018-01-26T17:19:18.154Z,84.50
2018-01-26T17:21:46.438Z,84.50
2018-01-26T17:24:14.791Z,84.70
2018-01-26T17:26:42.305Z,84.60
2018-01-26T17:29:09.834Z,84.70
2018-01-26T17:31:38.135Z,84.40
2018-01-26T17:34:05.656Z,84.40
2018-01-26T17:36:34.008Z,85.00
2018-01-26T17:39:01.551Z,85.00
2018-01-26T17:41:29.103Z,85.10
2018-01-26T17:43:56.639Z,85.00
2018-01-26T17:46:24.165Z,84.80
2018-01-26T17:48:52.491Z,85.20
2018-01-26T17:51:20.015Z,85.20
2018-01-26T17:53:47.570Z,85.10
2018-01-26T17:56:15.879Z,85.50
2018-01-26T17:58:43.413Z,85.50
2018-01-26T18:01:10.950Z,85.90
2018-01-26T18:03:39.225Z,85.90
2018-01-26T18:06:07.519Z,86.00
2018-01-26T18:08:35.019Z,86.00
2018-01-26T18:11:02.553Z,86.00
2018-01-26T18:13:30.081Z,86.30
2018-01-26T18:15:58.370Z,86.00
2018-01-26T18:18:25.904Z,86.00
2018-01-26T18:20:54.211Z,85.90
2018-01-26T18:23:21.752Z,85.90
2018-01-26T18:25:50.034Z,85.30
2018-01-26T18:28:17.580Z,85.20
2018-01-26T18:30:45.868Z,85.10
2018-01-26T18:33:13.391Z,85.10
2018-01-26T18:35:41.689Z,84.90
2018-01-26T18:38:09.988Z,84.70
2018-01-26T18:40:37.538Z,84.70
2018-01-26T18:43:05.110Z,84.60
2018-01-26T18:45:32.665Z,84.60
2018-01-26T18:48:00.171Z,84.70
2018-01-26T18:50:27.733Z,84.40
2018-01-26T18:52:55.298Z,84.30
2018-01-26T18:55:22.808Z,84.30
2018-01-26T18:57:50.359Z,84.30
2018-01-26T19:00:17.875Z,84.10
2018-01-26T19:02:46.898Z,84.30
2018-01-26T19:05:14.440Z,84.30
2018-01-26T19:07:42.760Z,84.30
2018-01-26T19:10:10.316Z,84.30
2018-01-26T19:12:37.857Z,84.40
2018-01-26T19:15:05.428Z,84.30
2018-01-26T19:17:32.935Z,84.40
2018-01-26T19:20:01.217Z,85.10
2018-01-26T19:22:29.520Z,84.60
2018-01-26T19:24:57.056Z,84.60
2018-01-26T19:27:25.359Z,85.00
2018-01-26T19:29:52.966Z,85.00
2018-01-26T19:32:20.524Z,84.90
2018-01-26T19:34:48.042Z,84.90
2018-01-26T19:37:15.596Z,85.00
2018-01-26T19:39:43.157Z,85.00
2018-01-26T19:42:10.790Z,85.10
2018-01-26T19:44:38.329Z,85.20
2018-01-26T19:47:06.698Z,85.70
2018-01-26T19:49:34.282Z,85.00
2018-01-26T19:52:01.846Z,85.10
2018-01-26T19:54:30.201Z,85.10
2018-01-26T19:56:57.758Z,85.10
2018-01-26T19:59:25.285Z,85.50
2018-01-26T20:01:52.867Z,85.30
2018-01-26T20:04:27.510Z,85.40
2018-01-26T20:07:31.408Z,85.20
2018-01-26T20:09:58.947Z,85.20
2018-01-26T20:12:26.542Z,85.30
2018-01-26T20:14:54.856Z,85.60
2018-01-26T20:17:22.417Z,85.60
2018-01-26T20:19:49.920Z,85.60
2018-01-26T20:22:17.504Z,85.90
2018-01-26T20:24:45.062Z,86.80
2018-01-26T20:27:12.652Z,86.00
2018-01-26T20:29:40.214Z,86.20
2018-01-26T20:32:07.743Z,86.50
2018-01-26T20:34:35.299Z,86.70
2018-01-26T20:37:02.841Z,86.80
2018-01-26T20:39:31.215Z,86.90
2018-01-26T20:41:58.838Z,86.90
2018-01-26T20:44:26.358Z,86.70
2018-01-26T20:46:53.931Z,86.60
2018-01-26T20:49:21.536Z,86.80
2018-01-26T20:51:49.903Z,86.60
2018-01-26T20:54:17.423Z,86.60
2018-01-26T20:56:44.968Z,86.70
2018-01-26T20:59:12.547Z,86.70
2018-01-26T21:01:40.112Z,86.80
2018-01-26T21:04:07.656Z,87.00
2018-01-26T21:06:35.162Z,86.80
2018-01-26T21:09:02.789Z,86.90
2018-01-26T21:11:30.322Z,86.80
2018-01-26T21:13:57.861Z,86.70
2018-01-26T21:16:26.165Z,86.70
2018-01-26T21:18:53.775Z,86.70
2018-01-26T21:21:21.352Z,86.90
2018-01-26T21:23:49.834Z,86.60
2018-01-26T21:26:18.130Z,86.60
2018-01-26T21:28:46.008Z,86.60
2018-01-26T21:31:13.509Z,86.70
2018-01-26T21:33:41.068Z,86.80
2018-01-26T21:36:08.581Z,86.70
2018-01-26T21:38:36.162Z,86.40
2018-01-26T21:41:03.764Z,86.40
2018-01-26T21:43:32.091Z,86.40
2018-01-26T21:45:59.645Z,86.30
2018-01-26T21:48:27.207Z,86.50
2018-01-26T21:50:54.746Z,86.80
2018-01-26T21:53:22.256Z,86.70
2018-01-26T21:55:49.776Z,86.80
2018-01-26T21:58:17.336Z,87.00
2018-01-26T22:00:44.851Z,86.80
2018-01-26T22:03:13.181Z,87.10
2018-01-26T22:05:40.726Z,86.90
2018-01-26T22:08:08.259Z,86.90
2018-01-26T22:10:35.783Z,86.90
2018-01-26T22:13:03.309Z,87.00
2018-01-26T22:15:30.844Z,86.90
2018-01-26T22:17:58.397Z,87.00
2018-01-26T22:20:25.954Z,86.90
2018-01-26T22:22:53.479Z,87.60
2018-01-26T22:25:21.799Z,86.80
2018-01-26T22:27:49.321Z,87.10
2018-01-26T22:30:17.641Z,86.90
2018-01-26T22:32:45.148Z,86.90
2018-01-26T22:35:12.649Z,87.00
2018-01-26T22:37:40.202Z,87.00
2018-01-26T22:40:07.737Z,87.00
2018-01-26T22:42:36.029Z,87.20
2018-01-26T22:45:03.545Z,87.10
2018-01-26T22:47:31.849Z,87.20
2018-01-26T22:49:59.376Z,87.20
2018-01-26T22:52:26.906Z,87.40
2018-01-26T22:54:54.449Z,88.10
2018-01-26T22:57:21.969Z,87.40
2018-01-26T22:59:50.294Z,87.30
2018-01-26T23:02:17.836Z,87.30
2018-01-26T23:04:45.359Z,87.00
2018-01-26T23:07:13.661Z,86.90
2018-01-26T23:09:41.192Z,86.80
2018-01-26T23:12:09.480Z,87.00
2018-01-26T23:14:37.777Z,87.00
2018-01-26T23:17:05.391Z,87.00
2018-01-26T23:19:32.884Z,86.90
2018-01-26T23:22:00.432Z,87.00
2018-01-26T23:24:28.700Z,86.90
2018-01-26T23:26:56.975Z,87.70
2018-01-26T23:29:25.256Z,87.20
2018-01-26T23:31:53.564Z,87.20
2018-01-26T23:34:21.067Z,87.10
2018-01-26T23:36:49.356Z,87.20
2018-01-26T23:39:17.641Z,87.30
2018-01-26T23:41:45.625Z,87.10
2018-01-26T23:44:13.193Z,87.50
2018-01-26T23:46:40.703Z,87.30
2018-01-26T23:49:08.251Z,87.40
2018-01-26T23:51:35.776Z,87.30
2018-01-26T23:54:03.298Z,87.30
2018-01-26T23:56:31.598Z,87.70
2018-01-26T23:58:59.109Z,87.80
